Résultats

Grand Trail Garlaban: Le 51. Édition 2019.

51 Km
17/03/2019 à 06:30:00 - ROQUEVAIRE (13)
86 arrivant(e)s.





Place▲ Temps Dossard Nom Prenom Categ #Categ Sexe #Sexe Club Vit Moy Diplôme Partager
1 05:50:14 86 MASSON-SCHAEFFER GWEN ESM 1 M 1 8.74
2 05:50:28 104 CHANOZ MAXIME SEM 1 M 2 8.73
3 06:01:57 74 VESSEAU DAMIEN SEM 2 M 3 TEAM ENDURANCE SHOP 13 8.45
4 06:09:44 60 REDO FRANCK M1M 1 M 4 CSPCG 13 8.28
5 06:13:45 58 GERSON THOMAS SEM 3 M 5 8.19
6 06:19:22 62 MAZZONI RICHARD M1M 2 M 6 8.07
7 06:28:02 54 MIELLE BENOIT SEM 4 M 7 TRAIL CLUB DE PROVENCE 7.89
8 06:29:34 95 GENTA SIMON SEM 5 M 8 7.85
9 06:44:01 27 PALLISER FRANCK M1M 3 M 9 BASE AERIENNE SALON DE PROVENCE 7.57
10 07:14:32 47 DEVEY JEAN-MARC M3M 1 M 10 FREE TRAIL MARSEILLE 7.04
11 07:17:43 70 NAL ADRIEN SEM 6 M 11 CABBA 6.99
12 07:20:55 61 BASQUIN FLORENTIN SEM 7 M 12 RUN FREE 6.94
13 07:21:08 53 TEDESCO DAVID M1M 4 M 13 6.94
14 07:22:22 71 LAIFA ANDRE SEM 8 M 14 CSMS ATHLE LA SEYNE 6.92
15 07:22:25 69 SAINT-YVES VINCENT SEM 9 M 15 6.92
16 07:22:43 101 CHOPLIN JOHANN M1M 5 M 16 6.91
17 07:24:22 37 EUSTAQUIO PHILIPPE M2M 1 M 17 SAINT MATHIEU ATHLETICS 6.89
18 07:25:49 30 VANDEWOESTYNE MATHIEU M1M 6 M 18 CASTRIES RUNNING CLUB 6.86
19 07:32:45 130 SOULET JEAN-MICHEL M1M 7 M 19 SCO STE MARGUERITE 6.76
20 07:35:10 87 PICQ THOMAS SEM 10 M 20 6.72
21 07:37:31 32 ZOSSO FRANCOIS M2M 2 M 21 PEWEE TEAM 6.69
22 07:40:22 33 PARANS NICO M2M 3 M 22 NATURE TRAIL VIDAUBAN 6.65
23 07:40:38 44 GREMEAUX DENIS M2M 4 M 23 6.64
24 07:46:06 100 ROMERO ANTHONY SEM 11 M 24 TRAIL CLUB OLLIOULES 6.57
25 07:50:15 93 ROMEYER OLIVIER M1M 8 M 25 CAF CHAMBERY 6.51
26 07:51:33 67 GOUGE GAETAN SEM 12 M 26 6.49
27 07:53:14 78 TALON ALEXANDRE SEM 13 M 27 6.47
28 07:54:10 103 ATZENI LAURIE SEF 1 F 1 TEAM ENDURANCE SHOP 13 6.45
29 07:54:10 89 LAVERSANNE SOPHIE SEF 2 F 2 SUDRUNNING/MARSEILLE TRAIL CLUB 6.45
30 08:04:09 48 PICARD NICOLAS M1M 9 M 28 COULARET 6.32
31 08:04:53 91 GALANTI MAXENCE ESM 2 M 29 VELO CLUB LE THOR GADAGNE 6.31
32 08:13:45 82 MESSIE MONIQUE SEF 3 F 3 6.20
33 08:16:33 46 LARDET CHRISTOPHE M1M 10 M 30 CROSS TRAINER 13 6.16
34 08:22:43 11 COMMETTE PIERRE M1M 11 M 31 6.09
35 08:23:33 85 TATNGA VALENTIN M1M 12 M 32 CLUB 26 ALLAN 6.08
36 08:27:50 24 BELTRANDO DIDIER M1M 13 M 33 TOULON SPORTS NATURE 6.03
37 08:27:50 88 MAYON MARC SEM 14 M 34 TOULON SPORTS NATURE 6.03
38 08:28:21 28 PERRET SEBASTIEN SEM 15 M 35 6.02
39 08:30:13 45 EYMARD FABIEN M1M 14 M 36 FREE TRAIL MARSEILLE 6.00
40 08:30:59 52 CANTAREL JEROME M1M 15 M 37 TRAIL CLUB OLLIOULES 5.99
41 08:31:15 34 BOUCAU JULIE SEF 4 F 4 LES BIPEDES DE LA VAUNAGE 5.99
42 08:36:50 96 HURTEVENT MARC M2M 5 M 38 5.92
43 08:36:56 83 PAPE ERIC M1M 16 M 39 5.92
44 08:44:41 90 CHAMBON ERIC M1M 17 M 40 FLASH GORDON 5.83
45 08:46:51 65 SANCHEZ NATHALIE M1F 1 F 5 COURIR EN DOMBES 5.81
46 08:46:51 64 ABERKANE TAHAR M2M 6 M 41 5.81
47 08:58:34 29 POUS JEROME M1M 18 M 42 SAINT MATHIEU ATHLETIC 5.68
48 08:59:10 1 DAVOUST JEAN M1M 19 M 43 FREE TRAIL MARSEILLE 5.68
49 09:01:54 35 RUFFIN GREGORY M1M 20 M 44 5.65
50 09:01:54 97 HOELTIG MICHAEL M3M 2 M 45 5.65
51 09:01:55 98 MEYNADIER FREDERIC M1M 21 M 46 ASSPA 5.65
52 09:04:04 99 ANTONIAZZI GAELLE SEF 5 F 6 5.62
53 09:04:07 39 GRASSIANO CHRISTOPHE M1M 22 M 47 5.62
54 09:06:20 42 ORTIZ ROBERT M2M 7 M 48 AMC 5.60
55 09:10:42 14 SERRET PHILIPPE M1M 23 M 49 5.56
56 09:12:35 77 SQUADRELLI LORENZO SEM 16 M 50 SABLET TERRE DE TRAIL 5.54
57 09:12:36 18 DUCHIER CLAUDE M3M 3 M 51 5.54
58 09:21:44 73 LEPORINI PAUL M3M 4 M 52 5.45
59 09:22:08 72 SOULAYROL BENEDICTE M2F 1 F 7 5.44
60 09:22:08 63 PERRET PIERRE M2M 8 M 53 5.44
61 09:24:50 17 LAI ERIC M2M 9 M 54 TRAIL CLUB OLLIOULAIS 5.42
62 09:26:12 9 SOUCHON LAURENT M1M 24 M 55 SATANIC RUNNING TEAM 5.40
63 09:26:12 8 GAUDIEZ PHILIPPE M2M 10 M 56 TEAM RAIDLIGHT 5.40
64 09:29:55 2 BATIFOULIER MURIEL M2F 2 F 8 POUR LAURENT 5.37
65 09:32:06 43 DIOT JEAN-MARC M1M 25 M 57 5.35
66 09:33:53 36 DINGEMANS GEOFFROY M1M 26 M 58 5.33
67 09:34:36 19 MERI IRENE M1F 2 F 9 SUARELAISE 5.33
68 09:36:48 57 DURUPT RENE M2M 11 M 59 KABEL 5.31
69 09:38:23 26 LEROY PHILIPPE M3M 5 M 60 LA FOULEE MEYNOISE 5.29
70 09:39:09 50 JULIARD JEROME-JULIARD-POUR SEM 17 M 61 5.28
71 09:41:41 15 MARTIN CLEMENT SEM 18 M 62 5.26
72 09:43:17 38 SERAN PATRICK M2M 12 M 63 USSP 5.25
73 09:49:01 5 VERRIEZ VINCENT M1M 27 M 64 FALICOUN TRAIL PLAISIR 5.20
74 09:49:04 55 BOSIO CLAUDINE M3F 1 F 10 5.19
75 09:53:46 12 WOLFF JEAN-PHILIPPE SEM 19 M 65 5.15
76 09:55:48 94 LAGNEAU ERIC M2M 13 M 66 TRAIL NATURE COLLOBRIERES 5.14
77 09:58:24 49 COMPAGNON FRANCOIS ESM 3 M 67 5.11
78 10:03:40 25 NADDEO JEAN-PIERRE M3M 6 M 68 EPM ATHLETISME 5.07
79 10:18:48 22 CORTIAL FREDERIC M1M 28 M 69 4.95
80 10:24:48 56 ASTRUC KARINE M1F 3 F 11 KABEL 4.90
81 10:26:26 16 TUNNO MARC M2M 14 M 70 4.88
82 10:30:07 41 BARAT NELLY M1F 4 F 12 4.86
83 11:09:00 31 DRO PHILIPPE M2M 15 M 71 4.57
84 11:09:10 66 MICHEL OLIVIER M1M 29 M 72 ARLES ATHLETISME 4.57
85 11:14:00 59 GADARINIAN GABRIEL M3M 7 M 73 4.54
86 11:14:10 10 BARNOLE SYLVAIN M1M 30 M 74 4.54